WetterOnline ( http://www.wetteronline.de )

Wetter aktuell Neustadt i.H.

Aktuelles Wetter: Pelzerhaken/Neustadt i.H. (2m)

6-stündlich | Neueste Meldungen
Ortszeit Temperatur Wetter
Mi, 19.09. 20:00 21.0° C wolkig
Mi, 19.09. 14:00 23.0° C leicht bewölkt
Mi, 19.09. 8:00 15.5° C wolkig
Mi, 19.09. 2:00 16.7° C wolkenlos
Di, 18.09. 20:00 20.5° C leicht bewölkt
Di, 18.09. 14:00 23.9° C fast wolkenlos
Di, 18.09. 8:00 11.2° C leicht bewölkt
Di, 18.09. 2:00 10.2° C -
Ortszeit Temperatur Wetter
Mi, 19.09. 20:30 20.7° C wolkig
Mi, 19.09. 20:20 20.7° C wolkig
Mi, 19.09. 20:10 20.6° C wolkig
Mi, 19.09. 20:00 21.0° C wolkig
Mi, 19.09. 19:50 21.0° C wolkig
Mi, 19.09. 19:40 20.8° C leicht bewölkt
Mi, 19.09. 19:30 21.1° C leicht bewölkt
Mi, 19.09. 19:00 21.2° C wolkenlos
Mi, 19.09. 18:30 22.2° C leicht bewölkt
Mi, 19.09. 18:00 22.4° C fast wolkenlos
Mi, 19.09. 17:30 23.0° C leicht bewölkt
Ortszeit Relative Feuchte Sichtweite
Mi, 19.09. 20:00 69% 35 km
Mi, 19.09. 14:00 60% 28 km
Mi, 19.09. 8:00 88% 21 km
Mi, 19.09. 2:00 86% 22 km
Di, 18.09. 20:00 72% 35 km
Di, 18.09. 14:00 56% 23 km
Di, 18.09. 8:00 95% 22 km
Di, 18.09. 2:00 97% 24 km
Ortszeit Relative Feuchte Sichtweite
Mi, 19.09. 20:30 69% 35 km
Mi, 19.09. 20:20 69% -
Mi, 19.09. 20:10 69% -
Mi, 19.09. 20:00 69% 35 km
Mi, 19.09. 19:50 69% -
Mi, 19.09. 19:40 71% -
Mi, 19.09. 19:30 70% 35 km
Mi, 19.09. 19:00 70% 40 km
Mi, 19.09. 18:30 65% 35 km
Mi, 19.09. 18:00 65% 26 km
Mi, 19.09. 17:30 62% 25 km
Ortszeit Niederschlagsmenge Niederschlagsart
Mi, 19.09. 20:00 0.0 l/m2 in 12 Std. -
Mi, 19.09. 14:00 0.0 l/m2 in 6 Std. -
Mi, 19.09. 8:00 0.0 l/m2 in 12 Std. -
Mi, 19.09. 2:00 0.0 l/m2 in 6 Std. -
Di, 18.09. 20:00 0.0 l/m2 in 12 Std. -
Di, 18.09. 14:00 0.0 l/m2 in 6 Std. -
Di, 18.09. 8:00 0.0 l/m2 in 12 Std. -
Di, 18.09. 2:00 0.0 l/m2 in 6 Std. -
Ortszeit Niederschlagsmenge Niederschlagsart
Mi, 19.09. 20:30 0.0 l/m2 in 1 Std. -
Mi, 19.09. 20:20 keine Meldung -
Mi, 19.09. 20:10 keine Meldung -
Mi, 19.09. 20:00 0.0 l/m2 in 1 Std. -
Mi, 19.09. 19:50 keine Meldung -
Mi, 19.09. 19:40 keine Meldung -
Mi, 19.09. 19:30 0.0 l/m2 in 1 Std. -
Mi, 19.09. 19:00 0.0 l/m2 in 1 Std. -
Mi, 19.09. 18:30 0.0 l/m2 in 1 Std. -
Mi, 19.09. 18:00 0.0 l/m2 in 1 Std. -
Mi, 19.09. 17:30 0.0 l/m2 in 1 Std. -
Ortszeit Stärke Spitze Richtung
km/h Bft. km/h Grad Sektor
Mi, 19.09. 20:00 13 3 33 210° SW
Mi, 19.09. 14:00 14 3 29 220° SW
Mi, 19.09. 8:00 11 2 25 230° SW
Mi, 19.09. 2:00 11 2 32 230° SW
Di, 18.09. 20:00 11 2 32 180° S
Di, 18.09. 14:00 18 3 22 170° S
Di, 18.09. 8:00 11 2 15 190° S
Di, 18.09. 2:00 4 1 7 220° SW
Ortszeit Stärke Spitze Richtung
km/h Bft. km/h Grad Sektor
Mi, 19.09. 20:30 9 2 19 230° SW
Mi, 19.09. 20:20 9 2 - 230° SW
Mi, 19.09. 20:10 9 2 - 230° SW
Mi, 19.09. 20:00 13 3 19 210° SW
Mi, 19.09. 19:50 13 3 - 210° SW
Mi, 19.09. 19:40 11 2 - 220° SW
Mi, 19.09. 19:30 11 2 18 220° SW
Mi, 19.09. 19:00 13 3 26 220° SW
Mi, 19.09. 18:30 18 3 25 210° SW
Mi, 19.09. 18:00 19 3 33 210° SW
Mi, 19.09. 17:30 22 4 32 210° SW
Ortszeit Untergrenze Bedeckung Gattung
total tief tief mittel hoch
Mi, 19.09. 20:00 1800 m 7/8 2/8 - - -
Mi, 19.09. 14:00 7200 m 7/8 0/8 - - -
Mi, 19.09. 8:00 6600 m 6/8 3/8 - - -
Mi, 19.09. 2:00 - 0/8 0/8 - - -
Di, 18.09. 20:00 2700 m 2/8 2/8 - - -
Di, 18.09. 14:00 10500 m 1/8 0/8 - - -
Di, 18.09. 8:00 10500 m 3/8 0/8 - - -
Di, 18.09. 2:00 - - - - - -
Ortszeit Bedeckungsgrad in Achtel und Wolkenuntergrenze
Mi, 19.09. 20:30 1(1800m) 7(8400m)
Mi, 19.09. 20:20 1(1800m) 1(2100m) 7(8400m)
Mi, 19.09. 20:10 2(1800m) 7(9000m) 7(10500m)
Mi, 19.09. 20:00 2(1800m) 6(9000m) 7(10500m)
Mi, 19.09. 19:50 2(1800m) 6(9000m) 7(10500m)
Mi, 19.09. 19:40 1(1800m) 4(9000m) 5(10500m)
Mi, 19.09. 19:30 1(2100m) 3(10500m) 5(10500m)
Mi, 19.09. 19:00 keine Wolken
Mi, 19.09. 18:30 3(10500m)
Mi, 19.09. 18:00 2(10500m) 2(10500m)
Mi, 19.09. 17:30 1(1800m) 1(9000m)
Ortszeit Luftdruck NN (hPa) Tendenz (hPa in 3 Std.)
Mi, 19.09. 20:00 1014 - 0,1
Mi, 19.09. 14:00 1016 - 0,2
Mi, 19.09. 8:00 1016 + 0,9
Mi, 19.09. 2:00 1014 + 0,9
Di, 18.09. 20:00 1010 + 0,1
Di, 18.09. 14:00 1011 - 1,9
Di, 18.09. 8:00 1014 - 1,0
Di, 18.09. 2:00 1016 - 1,1
Ortszeit Luftdruck NN (hPa) Tendenz (hPa in 3 Std.)
Mi, 19.09. 20:30 1014 + 0,3
Mi, 19.09. 20:20 1014 keine Meldung
Mi, 19.09. 20:10 1014 keine Meldung
Mi, 19.09. 20:00 1014 - 0,1
Mi, 19.09. 19:50 1014 keine Meldung
Mi, 19.09. 19:40 1014 keine Meldung
Mi, 19.09. 19:30 1014 - 0,7
Mi, 19.09. 19:00 1014 - 1,1
Mi, 19.09. 18:30 1013 - 1,7
Mi, 19.09. 18:00 1014 - 1,5
Mi, 19.09. 17:30 1014 - 1,3
Ortszeit Schneehöhe (cm)
Mi, 19.09. 20:00 0
Mi, 19.09. 14:00 0
Mi, 19.09. 8:00 0
Mi, 19.09. 2:00 0
Di, 18.09. 20:00 0
Di, 18.09. 14:00 0
Di, 18.09. 8:00 0
Di, 18.09. 2:00 0
Ortszeit Schneehöhe (cm)
Mi, 19.09. 20:30 0
Mi, 19.09. 20:20 0
Mi, 19.09. 20:10 0
Mi, 19.09. 20:00 0
Mi, 19.09. 19:50 0
Mi, 19.09. 19:40 0
Mi, 19.09. 19:30 0
Mi, 19.09. 19:00 0
Mi, 19.09. 18:30 0
Mi, 19.09. 18:00 0
Mi, 19.09. 17:30 0
Link zu dieser Seite / Seite empfehlen

Das Wetter in ...